Crescent, Oklahoma
Current Conditions -  °F | °C
As of 5:53 PM on Friday 24 Oct 2014 (Local Time) from KGOK Reporting Station
Clear Clear  
Wind Chill: 28°   Ceiling: Unl
Heat Index: 28°   Visibility: 10mi
Dew Point: 16°   Wind: 7mph
Humidity: 49%   Direction: 200°SSW
Pressure: 30.01"   Gusts: NA
Location:  35.95°N, 97.59°W
Report Text: KGOK 242253Z AUTO 20006KT 10SM CLR 28/16 A3001 RMK AO2 SLP156 T02780161
Loading
Personal Weather Stations






























Interactive Weather Map
Tropical Storm Tracking
New forecast layout! Learn more

10-Day Weather Forecast

Advertisements
Track Severe Weather on mobile